الصفحة الرئيسية
METAR-TAF:

METAR-TAF

مطار :

Window Rock Airport

Window Rock, أريزونا, الولايات المتحدة

دائرة عرض: 35-39N, خط طول: 109-04W, ارتفاع: 2055 متر

مراقبة الطقس الحالي

تاريخ ووقت الإصدار 23 دقيقة قبل الساعة 04:53UTC
رياح هادئة
درجة الحرارة -3°درجة مئوية
الرطوبة 80%
ضغط 1030 hPa
الرؤية: 16.1 كم
سماء صافية

METAR: KRQE 100453Z AUTO 00000KT 10SM CLR M03/M06 A3043 RMK AO2 SLP305 T10331056

زمن: 22:16 (05:16 UTC)


TAF: مفقودة

أرصاد الطقس والتوقعات من أكثر من 4000 مطار (تقارير الطقس للمطار METAR والتنبؤ بالطقس بالمطارTAF).

المحطات المتاحة هي النقط الصفراء والحمراء على الخريطة.

حرك المؤشر فوق النقطة لمعرفة اسم المحطة.

ثم انقر لمعرفة أرصاد وتوقعات الطقس.

لتغيير الخارطة: اضغط على الأزرار الخضراء مع رمز الصليب الأسود للتكبير. على الزر الأخضر مع شرطة للتصغير، أو على الأسهم الخضراء للخرائط المجاورة.


METAR-TAF: